createdAt,value
2017-09-29T00:00:24.867Z,974.53
2017-09-29T00:01:34.206Z,974.51
2017-09-29T00:02:43.547Z,974.51
2017-09-29T00:03:52.564Z,974.54
2017-09-29T00:05:01.579Z,974.53
2017-09-29T00:06:10.276Z,974.55
2017-09-29T00:07:19.614Z,974.52
2017-09-29T00:08:28.629Z,974.53
2017-09-29T00:09:37.966Z,974.57
2017-09-29T00:10:47.629Z,974.56
2017-09-29T00:11:56.645Z,974.56
2017-09-29T00:13:06.634Z,974.54
2017-09-29T00:14:16.287Z,974.59
2017-09-29T00:15:25.947Z,974.56
2017-09-29T00:16:34.642Z,974.57
2017-09-29T00:17:44.313Z,974.54
2017-09-29T00:18:53.657Z,974.57
2017-09-29T00:20:02.669Z,974.58
2017-09-29T00:21:11.690Z,974.54
2017-09-29T00:22:20.709Z,974.53
2017-09-29T00:23:30.045Z,974.56
2017-09-29T00:24:39.726Z,974.54
2017-09-29T00:25:48.746Z,974.54
2017-09-29T00:26:58.094Z,974.55
2017-09-29T00:28:06.795Z,974.53
2017-09-29T00:29:15.806Z,974.5
2017-09-29T00:30:25.148Z,974.51
2017-09-29T00:31:34.159Z,974.49
2017-09-29T00:32:43.811Z,974.54
2017-09-29T00:33:52.826Z,974.49
2017-09-29T00:35:01.849Z,974.52
2017-09-29T00:36:11.183Z,974.51
2017-09-29T00:37:20.197Z,974.52
2017-09-29T00:38:29.215Z,974.5
2017-09-29T00:39:38.558Z,974.48
2017-09-29T00:40:48.215Z,974.48
2017-09-29T00:41:57.559Z,974.47
2017-09-29T00:43:06.576Z,974.53
2017-09-29T00:44:15.913Z,974.51
2017-09-29T00:45:24.931Z,974.52
2017-09-29T00:46:33.948Z,974.54
2017-09-29T00:47:43.283Z,974.53
2017-09-29T00:48:51.981Z,974.49
2017-09-29T00:50:00.999Z,974.49
2017-09-29T00:51:09.694Z,974.46
2017-09-29T00:52:18.708Z,974.52
2017-09-29T00:53:27.406Z,974.47
2017-09-29T00:54:37.063Z,974.49
2017-09-29T00:55:46.080Z,974.5
2017-09-29T00:56:54.778Z,974.47
2017-09-29T00:58:03.793Z,974.51
2017-09-29T00:59:13.458Z,974.49
2017-09-29T01:00:22.474Z,974.54
2017-09-29T01:01:32.163Z,974.52
2017-09-29T01:02:40.856Z,974.49
2017-09-29T01:03:50.191Z,974.53
2017-09-29T01:04:59.215Z,974.49
2017-09-29T01:06:08.228Z,974.5
2017-09-29T01:07:18.220Z,974.48
2017-09-29T01:08:27.871Z,974.51
2017-09-29T01:09:36.897Z,974.49
2017-09-29T01:10:46.878Z,974.48
2017-09-29T01:11:56.220Z,974.46
2017-09-29T01:13:04.914Z,974.41
2017-09-29T01:14:13.930Z,974.49
2017-09-29T01:15:22.951Z,974.49
2017-09-29T01:16:32.616Z,974.49
2017-09-29T01:17:41.311Z,974.47
2017-09-29T01:18:50.329Z,974.46
2017-09-29T01:19:59.985Z,974.45
2017-09-29T01:21:09.642Z,974.45
2017-09-29T01:22:18.340Z,974.45
2017-09-29T01:23:27.701Z,974.47
2017-09-29T01:24:36.367Z,974.48
2017-09-29T01:25:45.706Z,974.48
2017-09-29T01:26:55.041Z,974.5
2017-09-29T01:28:04.702Z,974.51
2017-09-29T01:29:13.390Z,974.49
2017-09-29T01:30:22.405Z,974.51
2017-09-29T01:31:32.384Z,974.49
2017-09-29T01:32:42.044Z,974.5
2017-09-29T01:33:52.020Z,974.47
2017-09-29T01:35:01.356Z,974.44
2017-09-29T01:36:10.054Z,974.44
2017-09-29T01:37:19.066Z,974.4
2017-09-29T01:38:28.405Z,974.42
2017-09-29T01:39:37.093Z,974.44
2017-09-29T01:40:46.434Z,974.43
2017-09-29T01:41:56.091Z,974.45
2017-09-29T01:43:05.749Z,974.41
2017-09-29T01:44:15.086Z,974.42
2017-09-29T01:45:24.420Z,974.4
2017-09-29T01:46:33.112Z,974.4
2017-09-29T01:47:42.126Z,974.4
2017-09-29T01:48:51.459Z,974.38
2017-09-29T01:50:00.837Z,974.39
2017-09-29T01:51:09.814Z,974.38
2017-09-29T01:52:19.146Z,974.36
2017-09-29T01:53:28.161Z,974.37
2017-09-29T01:54:37.826Z,974.36
2017-09-29T01:55:46.843Z,974.36
2017-09-29T01:56:55.861Z,974.33
2017-09-29T01:58:05.203Z,974.31
2017-09-29T01:59:14.218Z,974.34
2017-09-29T02:00:23.230Z,974.26
2017-09-29T02:01:32.250Z,974.28
2017-09-29T02:02:40.946Z,974.32
2017-09-29T02:03:49.960Z,974.27
2017-09-29T02:04:59.937Z,974.25
2017-09-29T02:06:09.274Z,974.25
2017-09-29T02:07:18.615Z,974.19
2017-09-29T02:08:27.632Z,974.22
2017-09-29T02:09:36.650Z,974.16
2017-09-29T02:10:45.680Z,974.18
2017-09-29T02:11:54.377Z,974.19
2017-09-29T02:13:03.389Z,974.17
2017-09-29T02:14:12.401Z,974.15
2017-09-29T02:15:21.730Z,974.17
2017-09-29T02:16:31.061Z,974.15
2017-09-29T02:17:40.075Z,974.13
2017-09-29T02:18:49.727Z,974.08
2017-09-29T02:19:58.421Z,974.14
2017-09-29T02:21:07.441Z,974.09
2017-09-29T02:22:16.769Z,974.09
2017-09-29T02:23:25.784Z,974.1
2017-09-29T02:24:34.802Z,974.04
2017-09-29T02:25:43.815Z,974.04
2017-09-29T02:26:52.514Z,974.05
2017-09-29T02:28:01.526Z,974.03
2017-09-29T02:29:10.862Z,974.05
2017-09-29T02:30:19.558Z,974.04
2017-09-29T02:31:28.897Z,974.03
2017-09-29T02:32:37.917Z,974.02
2017-09-29T02:33:46.934Z,974
2017-09-29T02:34:55.952Z,974
2017-09-29T02:36:05.291Z,974.03
2017-09-29T02:37:14.633Z,974.02
2017-09-29T02:38:23.648Z,974.03
2017-09-29T02:39:32.347Z,973.98
2017-09-29T02:40:41.371Z,973.97
2017-09-29T02:41:51.033Z,974.01
2017-09-29T02:43:00.684Z,974
2017-09-29T02:44:09.381Z,974.02
2017-09-29T02:45:18.712Z,973.98
2017-09-29T02:46:28.050Z,974.03
2017-09-29T02:47:37.064Z,974.01
2017-09-29T02:48:46.079Z,974.01
2017-09-29T02:49:55.734Z,974
2017-09-29T02:51:04.427Z,974.04
2017-09-29T02:52:13.764Z,973.99
2017-09-29T02:53:23.418Z,974
2017-09-29T02:54:32.118Z,974
2017-09-29T02:55:41.129Z,974.01
2017-09-29T02:56:49.821Z,974.01
2017-09-29T02:57:59.154Z,973.99
2017-09-29T02:59:08.170Z,974
2017-09-29T03:00:17.505Z,973.98
2017-09-29T03:01:26.839Z,973.99
2017-09-29T03:02:36.493Z,974.02
2017-09-29T03:03:45.185Z,973.98
2017-09-29T03:04:54.836Z,974
2017-09-29T03:06:03.533Z,973.96
2017-09-29T03:07:12.558Z,973.98
2017-09-29T03:08:21.571Z,973.91
2017-09-29T03:09:30.590Z,973.93
2017-09-29T03:10:39.926Z,973.93
2017-09-29T03:11:49.902Z,973.92
2017-09-29T03:12:59.565Z,973.91
2017-09-29T03:14:08.575Z,973.92
2017-09-29T03:15:17.272Z,973.94
2017-09-29T03:16:26.280Z,973.96
2017-09-29T03:17:35.296Z,973.94
2017-09-29T03:18:44.637Z,973.92
2017-09-29T03:19:53.646Z,973.9
2017-09-29T03:21:02.990Z,973.91
2017-09-29T03:22:12.327Z,973.87
2017-09-29T03:23:21.973Z,973.9
2017-09-29T03:24:30.993Z,973.88
2017-09-29T03:25:40.326Z,973.91
2017-09-29T03:26:49.663Z,973.9
2017-09-29T03:27:59.003Z,973.89
2017-09-29T03:29:07.722Z,973.89
2017-09-29T03:30:16.722Z,973.9
2017-09-29T03:31:26.059Z,973.85
2017-09-29T03:32:35.393Z,973.87
2017-09-29T03:33:44.733Z,973.85
2017-09-29T03:34:53.750Z,973.87
2017-09-29T03:36:02.771Z,973.86
2017-09-29T03:37:11.461Z,973.85
2017-09-29T03:38:20.795Z,973.83
2017-09-29T03:39:30.455Z,973.83
2017-09-29T03:40:39.469Z,973.82
2017-09-29T03:41:48.482Z,973.83
2017-09-29T03:42:58.141Z,973.83
2017-09-29T03:44:06.837Z,973.84
2017-09-29T03:45:16.492Z,973.8
2017-09-29T03:46:25.826Z,973.79
2017-09-29T03:47:35.157Z,973.85
2017-09-29T03:48:44.494Z,973.86
2017-09-29T03:49:53.837Z,973.84
2017-09-29T03:51:02.851Z,973.85
2017-09-29T03:52:11.867Z,973.83
2017-09-29T03:53:20.565Z,973.86
2017-09-29T03:54:29.905Z,973.83
2017-09-29T03:55:39.567Z,973.85
2017-09-29T03:56:48.265Z,973.79
2017-09-29T03:57:57.601Z,973.86
2017-09-29T03:59:06.619Z,973.83
2017-09-29T04:00:15.637Z,973.84
2017-09-29T04:01:24.973Z,973.82
2017-09-29T04:02:33.671Z,973.81
2017-09-29T04:03:42.684Z,973.82
2017-09-29T04:04:51.701Z,973.82
2017-09-29T04:06:00.714Z,973.85
2017-09-29T04:07:10.049Z,973.85
2017-09-29T04:08:19.069Z,973.87
2017-09-29T04:09:28.402Z,973.85
2017-09-29T04:10:38.056Z,973.85
2017-09-29T04:11:47.389Z,973.88
2017-09-29T04:12:56.084Z,973.83
2017-09-29T04:14:05.426Z,973.84
2017-09-29T04:15:14.441Z,973.84
2017-09-29T04:16:23.774Z,973.87
2017-09-29T04:17:33.118Z,973.84
2017-09-29T04:18:41.812Z,973.89
2017-09-29T04:19:51.468Z,973.86
2017-09-29T04:21:00.485Z,973.88
2017-09-29T04:22:09.504Z,973.91
2017-09-29T04:23:18.200Z,973.89
2017-09-29T04:24:27.214Z,973.88
2017-09-29T04:25:35.909Z,973.84
2017-09-29T04:26:45.245Z,973.85
2017-09-29T04:27:54.576Z,973.86
2017-09-29T04:29:03.597Z,973.9
2017-09-29T04:30:12.611Z,973.87
2017-09-29T04:31:21.955Z,973.87
2017-09-29T04:32:31.279Z,973.85
2017-09-29T04:33:40.293Z,973.84
2017-09-29T04:34:49.951Z,973.9
2017-09-29T04:35:59.292Z,973.84
2017-09-29T04:37:08.311Z,973.83
2017-09-29T04:38:17.323Z,973.84
2017-09-29T04:39:26.656Z,973.82
2017-09-29T04:40:35.668Z,973.84
2017-09-29T04:41:44.367Z,973.87
2017-09-29T04:42:53.387Z,973.82
2017-09-29T04:44:02.402Z,973.82
2017-09-29T04:45:11.412Z,973.85
2017-09-29T04:46:20.745Z,973.81
2017-09-29T04:47:29.441Z,973.82
2017-09-29T04:48:38.458Z,973.79
2017-09-29T04:49:47.792Z,973.83
2017-09-29T04:50:56.805Z,973.85
2017-09-29T04:52:06.790Z,973.83
2017-09-29T04:53:16.147Z,973.82
2017-09-29T04:54:25.164Z,973.78
2017-09-29T04:55:34.178Z,973.78
2017-09-29T04:56:43.191Z,973.79
2017-09-29T04:57:51.888Z,973.78
2017-09-29T04:59:00.587Z,973.81
2017-09-29T05:00:09.281Z,973.81
2017-09-29T05:01:18.300Z,973.82
2017-09-29T05:02:27.000Z,973.8
2017-09-29T05:03:36.019Z,973.77
2017-09-29T05:04:45.670Z,973.81
2017-09-29T05:05:54.365Z,973.8
2017-09-29T05:07:03.060Z,973.83
2017-09-29T05:08:12.077Z,973.81
2017-09-29T05:09:21.091Z,973.82
2017-09-29T05:10:30.428Z,973.83
2017-09-29T05:11:39.446Z,973.86
2017-09-29T05:12:48.144Z,973.88
2017-09-29T05:13:56.839Z,973.87
2017-09-29T05:15:05.532Z,973.92
2017-09-29T05:16:14.227Z,973.91
2017-09-29T05:17:23.253Z,973.95
2017-09-29T05:18:32.267Z,973.93
2017-09-29T05:19:41.280Z,973.94
2017-09-29T05:20:49.972Z,973.96
2017-09-29T05:21:58.670Z,973.96
2017-09-29T05:23:07.692Z,973.92
2017-09-29T05:24:16.389Z,973.91
2017-09-29T05:25:26.049Z,973.92
2017-09-29T05:26:35.067Z,973.89
2017-09-29T05:27:44.728Z,973.91
2017-09-29T05:28:53.743Z,973.89
2017-09-29T05:30:03.078Z,973.87
2017-09-29T05:31:12.094Z,973.87
2017-09-29T05:32:21.428Z,973.84
2017-09-29T05:33:30.766Z,973.85
2017-09-29T05:34:39.775Z,973.86
2017-09-29T05:35:48.789Z,973.9
2017-09-29T05:36:58.133Z,973.9
2017-09-29T05:38:06.826Z,973.97
2017-09-29T05:39:16.161Z,973.94
2017-09-29T05:40:25.823Z,973.97
2017-09-29T05:41:35.161Z,973.95
2017-09-29T05:42:44.498Z,973.93
2017-09-29T05:43:53.835Z,973.93
2017-09-29T05:45:02.851Z,974.02
2017-09-29T05:46:11.882Z,973.99
2017-09-29T05:47:21.230Z,973.97
2017-09-29T05:48:30.560Z,974
2017-09-29T05:49:39.577Z,973.98
2017-09-29T05:50:48.594Z,974
2017-09-29T05:51:57.607Z,974
2017-09-29T05:53:06.944Z,973.98
2017-09-29T05:54:16.279Z,974
2017-09-29T05:55:25.941Z,973.99
2017-09-29T05:56:34.960Z,973.98
2017-09-29T05:57:43.656Z,974
2017-09-29T05:58:52.999Z,973.94
2017-09-29T06:00:02.337Z,973.96
2017-09-29T06:01:11.673Z,973.97
2017-09-29T06:02:21.009Z,973.94
2017-09-29T06:03:30.663Z,973.99
2017-09-29T06:04:40.320Z,973.98
2017-09-29T06:05:49.333Z,973.99
2017-09-29T06:06:58.031Z,973.97
2017-09-29T06:08:07.370Z,973.99
2017-09-29T06:09:16.064Z,973.96
2017-09-29T06:10:25.078Z,973.97
2017-09-29T06:11:34.107Z,973.93
2017-09-29T06:12:43.764Z,973.94
2017-09-29T06:13:53.098Z,973.95
2017-09-29T06:15:02.128Z,973.92
2017-09-29T06:16:11.140Z,973.94
2017-09-29T06:17:20.153Z,973.91
2017-09-29T06:18:29.169Z,973.92
2017-09-29T06:19:38.508Z,973.94
2017-09-29T06:20:47.526Z,973.9
2017-09-29T06:21:56.220Z,973.9
2017-09-29T06:23:04.920Z,973.92
2017-09-29T06:24:13.939Z,973.9
2017-09-29T06:25:22.634Z,973.91
2017-09-29T06:26:31.649Z,973.9
2017-09-29T06:27:41.304Z,973.93
2017-09-29T06:28:50.001Z,973.91
2017-09-29T06:29:59.336Z,973.93
2017-09-29T06:31:08.365Z,973.9
2017-09-29T06:32:17.701Z,973.91
2017-09-29T06:33:27.385Z,973.94
2017-09-29T06:34:36.403Z,973.94
2017-09-29T06:35:46.060Z,973.97
2017-09-29T06:36:55.394Z,973.95
2017-09-29T06:38:04.094Z,973.94
2017-09-29T06:39:13.114Z,973.92
2017-09-29T06:40:22.766Z,973.95
2017-09-29T06:41:31.785Z,973.95
2017-09-29T06:42:41.119Z,973.9
2017-09-29T06:43:50.132Z,973.9
2017-09-29T06:44:59.469Z,973.93
2017-09-29T06:46:08.801Z,973.93
2017-09-29T06:47:17.813Z,973.91
2017-09-29T06:48:26.837Z,973.94
2017-09-29T06:49:36.168Z,973.92
2017-09-29T06:50:44.866Z,973.94
2017-09-29T06:51:54.199Z,973.95
2017-09-29T06:53:02.896Z,973.94
2017-09-29T06:54:11.915Z,973.97
2017-09-29T06:55:21.254Z,973.96
2017-09-29T06:56:30.595Z,973.99
2017-09-29T06:57:39.620Z,973.98
2017-09-29T06:58:48.958Z,973.96
2017-09-29T06:59:57.968Z,974.01
2017-09-29T07:01:07.624Z,974.01
2017-09-29T07:02:16.637Z,974.02
2017-09-29T07:03:26.292Z,974.03
2017-09-29T07:04:35.307Z,974.04
2017-09-29T07:05:44.317Z,974.02
2017-09-29T07:06:53.011Z,974.02
2017-09-29T07:08:02.677Z,973.99
2017-09-29T07:09:11.690Z,974.01
2017-09-29T07:10:20.382Z,974.01
2017-09-29T07:11:29.393Z,974.02
2017-09-29T07:12:39.052Z,974.01
2017-09-29T07:13:48.067Z,974.03
2017-09-29T07:14:57.087Z,974
2017-09-29T07:16:05.794Z,974.04
2017-09-29T07:17:15.450Z,974.02
2017-09-29T07:18:24.468Z,974.04
2017-09-29T07:19:34.441Z,974.01
2017-09-29T07:20:43.458Z,974
2017-09-29T07:21:52.153Z,974.01
2017-09-29T07:23:01.175Z,974.02
2017-09-29T07:24:10.512Z,974.05
2017-09-29T07:25:20.171Z,973.99
2017-09-29T07:26:29.200Z,974.03
2017-09-29T07:27:37.900Z,974.06
2017-09-29T07:28:47.552Z,974.05
2017-09-29T07:29:56.894Z,974.07
2017-09-29T07:31:06.237Z,974.07
2017-09-29T07:32:15.576Z,974.07
2017-09-29T07:33:24.914Z,974.07
2017-09-29T07:34:34.257Z,974.03
2017-09-29T07:35:42.955Z,974.06
2017-09-29T07:36:51.979Z,974.09
2017-09-29T07:38:00.675Z,974.11
2017-09-29T07:39:09.688Z,974.09
2017-09-29T07:40:18.705Z,974.08
2017-09-29T07:41:28.359Z,974.1
2017-09-29T07:42:37.054Z,974.09
2017-09-29T07:43:46.072Z,974.08
2017-09-29T07:44:55.085Z,974.12
2017-09-29T07:46:04.101Z,974.08
2017-09-29T07:47:13.115Z,974.09
2017-09-29T07:48:22.135Z,974.1
2017-09-29T07:49:31.792Z,974.09
2017-09-29T07:50:40.806Z,974.09
2017-09-29T07:51:50.152Z,974.08
2017-09-29T07:52:59.164Z,974.14
2017-09-29T07:54:07.863Z,974.1
2017-09-29T07:55:16.880Z,974.15
2017-09-29T07:56:25.939Z,974.12
2017-09-29T07:57:34.947Z,974.12
2017-09-29T07:58:44.285Z,974.11
2017-09-29T07:59:53.299Z,974.11
2017-09-29T08:01:01.994Z,974.15
2017-09-29T08:02:10.690Z,974.12
2017-09-29T08:03:20.036Z,974.09
2017-09-29T08:04:29.374Z,974.12
2017-09-29T08:05:38.387Z,974.07
2017-09-29T08:06:48.043Z,974.1
2017-09-29T08:07:57.387Z,974.11
2017-09-29T08:09:06.084Z,974.13
2017-09-29T08:10:15.419Z,974.11
2017-09-29T08:11:24.753Z,974.12
2017-09-29T08:12:33.771Z,974.06
2017-09-29T08:13:42.468Z,974.09
2017-09-29T08:14:51.797Z,974.08
2017-09-29T08:16:00.811Z,974.08
2017-09-29T08:17:09.827Z,974.03
2017-09-29T08:18:19.161Z,974.08
2017-09-29T08:19:28.186Z,974.09
2017-09-29T08:20:36.881Z,974.06
2017-09-29T08:21:46.544Z,974.05
2017-09-29T08:22:55.241Z,974.04
2017-09-29T08:24:04.903Z,974.04
2017-09-29T08:25:13.606Z,974.04
2017-09-29T08:26:22.630Z,974.04
2017-09-29T08:27:31.645Z,974.05
2017-09-29T08:28:40.983Z,974.02
2017-09-29T08:29:50.001Z,974.02
2017-09-29T08:30:59.020Z,974.07
2017-09-29T08:32:08.676Z,974.04
2017-09-29T08:33:17.694Z,974.03
2017-09-29T08:34:27.033Z,974.02
2017-09-29T08:35:36.054Z,974.07
2017-09-29T08:36:45.706Z,974.06
2017-09-29T08:37:55.043Z,974.07
2017-09-29T08:39:04.055Z,974.05
2017-09-29T08:40:13.717Z,974.04
2017-09-29T08:41:22.411Z,974.04
2017-09-29T08:42:31.107Z,974.03
2017-09-29T08:43:40.446Z,974.05
2017-09-29T08:44:49.462Z,974.01
2017-09-29T08:45:59.136Z,973.97
2017-09-29T08:47:08.472Z,974.01
2017-09-29T08:48:17.806Z,973.98
2017-09-29T08:49:26.501Z,974.01
2017-09-29T08:50:35.512Z,974
2017-09-29T08:51:44.208Z,973.99
2017-09-29T08:52:52.903Z,974.04
2017-09-29T08:54:01.599Z,973.96
2017-09-29T08:55:10.933Z,973.98
2017-09-29T08:56:19.943Z,973.98
2017-09-29T08:57:28.962Z,973.96
2017-09-29T08:58:38.295Z,973.94
2017-09-29T08:59:47.945Z,973.95
2017-09-29T09:00:56.640Z,973.93
2017-09-29T09:02:05.656Z,973.91
2017-09-29T09:03:15.315Z,973.93
2017-09-29T09:04:24.339Z,973.87
2017-09-29T09:05:33.361Z,973.84
2017-09-29T09:06:42.057Z,973.86
2017-09-29T09:07:51.076Z,973.87
2017-09-29T09:09:00.089Z,973.84
2017-09-29T09:10:09.440Z,973.83
2017-09-29T09:11:18.464Z,973.85
2017-09-29T09:12:27.160Z,973.83
2017-09-29T09:13:36.920Z,973.8
2017-09-29T09:14:46.281Z,973.82
2017-09-29T09:15:55.650Z,973.8
2017-09-29T09:17:04.668Z,973.76
2017-09-29T09:18:14.436Z,973.8
2017-09-29T09:19:23.130Z,973.77
2017-09-29T09:20:32.785Z,973.78
2017-09-29T09:21:41.835Z,973.76
2017-09-29T09:22:51.556Z,973.72
2017-09-29T09:24:00.914Z,973.69
2017-09-29T09:25:10.569Z,973.69
2017-09-29T09:26:19.907Z,973.69
2017-09-29T09:27:29.247Z,973.69
2017-09-29T09:28:38.668Z,973.73
2017-09-29T09:29:48.004Z,973.72
2017-09-29T09:30:56.705Z,973.69
2017-09-29T09:32:05.720Z,973.73
2017-09-29T09:33:14.739Z,973.7
2017-09-29T09:34:23.763Z,973.67
2017-09-29T09:35:32.774Z,973.69
2017-09-29T09:36:42.786Z,973.64
2017-09-29T09:37:52.444Z,973.6
2017-09-29T09:39:01.472Z,973.58
2017-09-29T09:40:10.495Z,973.55
2017-09-29T09:41:19.844Z,973.54
2017-09-29T09:42:29.182Z,973.53
2017-09-29T09:43:38.520Z,973.5
2017-09-29T09:44:47.535Z,973.54
2017-09-29T09:45:57.194Z,973.56
2017-09-29T09:47:06.852Z,973.52
2017-09-29T09:48:16.191Z,973.55
2017-09-29T09:49:25.849Z,973.49
2017-09-29T09:50:34.865Z,973.49
2017-09-29T09:51:43.890Z,973.54
2017-09-29T09:52:52.906Z,973.51
2017-09-29T09:54:01.611Z,973.46
2017-09-29T09:55:10.635Z,973.49
2017-09-29T09:56:19.655Z,973.47
2017-09-29T09:57:28.998Z,973.49
2017-09-29T09:58:37.698Z,973.44
2017-09-29T09:59:46.715Z,973.43
2017-09-29T10:00:55.736Z,973.41
2017-09-29T10:02:05.076Z,973.46
2017-09-29T10:03:14.422Z,973.46
2017-09-29T10:04:23.764Z,973.43
2017-09-29T10:05:33.107Z,973.44
2017-09-29T10:06:42.130Z,973.44
2017-09-29T10:07:51.149Z,973.41
2017-09-29T10:08:59.852Z,973.3
2017-09-29T10:10:08.884Z,973.39
2017-09-29T10:11:18.550Z,973.32
2017-09-29T10:12:27.885Z,973.33
2017-09-29T10:13:36.588Z,973.37
2017-09-29T10:14:45.283Z,973.24
2017-09-29T10:15:54.306Z,973.33
2017-09-29T10:17:03.662Z,973.27
2017-09-29T10:18:12.686Z,973.36
2017-09-29T10:19:21.710Z,973.34
2017-09-29T10:20:31.371Z,973.28
2017-09-29T10:21:40.394Z,973.25
2017-09-29T10:22:50.051Z,973.31
2017-09-29T10:23:59.067Z,973.28
2017-09-29T10:25:08.412Z,973.26
2017-09-29T10:26:17.749Z,973.29
2017-09-29T10:27:27.088Z,973.28
2017-09-29T10:28:36.426Z,973.31
2017-09-29T10:29:45.769Z,973.23
2017-09-29T10:30:54.471Z,973.18
2017-09-29T10:32:03.524Z,973.15
2017-09-29T10:33:12.551Z,973.23
2017-09-29T10:34:21.887Z,973.2
2017-09-29T10:35:30.594Z,973.15
2017-09-29T10:36:39.622Z,973.13
2017-09-29T10:37:48.646Z,973.07
2017-09-29T10:38:58.320Z,973.15
2017-09-29T10:40:07.025Z,973.13
2017-09-29T10:41:16.372Z,973.1
2017-09-29T10:42:26.033Z,973.08
2017-09-29T10:43:34.736Z,973.11
2017-09-29T10:44:44.397Z,973.09
2017-09-29T10:45:53.098Z,973.06
2017-09-29T10:47:01.804Z,973.1
2017-09-29T10:48:10.828Z,973.09
2017-09-29T10:49:20.490Z,973.05
2017-09-29T10:50:29.513Z,973
2017-09-29T10:51:38.853Z,972.98
2017-09-29T10:52:47.880Z,972.97
2017-09-29T10:53:56.899Z,972.96
2017-09-29T10:55:05.600Z,973.02
2017-09-29T10:56:15.258Z,973
2017-09-29T10:57:24.598Z,973.05
2017-09-29T10:58:33.957Z,973.05
2017-09-29T10:59:42.959Z,973.06
2017-09-29T11:00:52.620Z,973.06
2017-09-29T11:02:01.643Z,972.95
2017-09-29T11:03:11.301Z,972.92
2017-09-29T11:04:20.003Z,972.89
2017-09-29T11:05:29.355Z,972.89
2017-09-29T11:06:38.702Z,972.97
2017-09-29T11:07:48.046Z,972.93
2017-09-29T11:08:56.754Z,972.95
2017-09-29T11:10:05.459Z,972.99
2017-09-29T11:11:14.475Z,972.95
2017-09-29T11:12:23.495Z,972.99
2017-09-29T11:13:33.174Z,972.95
2017-09-29T11:14:41.873Z,972.95
2017-09-29T11:15:50.578Z,972.95
2017-09-29T11:16:59.917Z,972.85
2017-09-29T11:18:08.618Z,972.83
2017-09-29T11:19:17.637Z,972.86
2017-09-29T11:20:26.657Z,972.87
2017-09-29T11:21:35.683Z,972.91
2017-09-29T11:22:44.382Z,972.91
2017-09-29T11:23:53.723Z,972.94
2017-09-29T11:25:02.745Z,972.88
2017-09-29T11:26:11.445Z,972.87
2017-09-29T11:27:20.147Z,972.86
2017-09-29T11:28:29.813Z,972.96
2017-09-29T11:29:38.839Z,972.8
2017-09-29T11:30:48.511Z,973.1
2017-09-29T11:31:57.854Z,972.74
2017-09-29T11:33:07.523Z,972.78
2017-09-29T11:34:16.873Z,972.99
2017-09-29T11:35:26.606Z,973.04
2017-09-29T11:36:35.963Z,972.78
2017-09-29T11:37:44.990Z,972.83
2017-09-29T11:38:53.697Z,972.93
2017-09-29T11:40:03.042Z,972.92
2017-09-29T11:41:11.744Z,972.89
2017-09-29T11:42:20.445Z,972.94
2017-09-29T11:43:29.469Z,972.8
2017-09-29T11:44:38.816Z,972.87
2017-09-29T11:45:48.153Z,972.75
2017-09-29T11:46:57.177Z,972.84
2017-09-29T11:48:06.519Z,972.74
2017-09-29T11:49:15.543Z,972.69
2017-09-29T11:50:24.562Z,972.67
2017-09-29T11:51:33.904Z,972.66
2017-09-29T11:52:43.562Z,972.65
2017-09-29T11:53:52.264Z,972.62
2017-09-29T11:55:01.923Z,972.62
2017-09-29T11:56:10.949Z,972.64
2017-09-29T11:57:20.290Z,972.64
2017-09-29T11:58:29.312Z,972.56
2017-09-29T11:59:38.972Z,972.58
2017-09-29T12:00:48.005Z,972.55
2017-09-29T12:01:57.024Z,972.58
2017-09-29T12:03:06.049Z,972.52
2017-09-29T12:04:15.429Z,972.56
2017-09-29T12:05:24.762Z,972.51
2017-09-29T12:06:34.118Z,972.5
2017-09-29T12:07:43.783Z,972.47
2017-09-29T12:08:53.126Z,972.49
2017-09-29T12:10:02.146Z,972.44
2017-09-29T12:11:10.847Z,972.44
2017-09-29T12:12:20.275Z,972.44
2017-09-29T12:13:29.295Z,972.4
2017-09-29T12:14:38.325Z,972.42
2017-09-29T12:15:47.350Z,972.37
2017-09-29T12:16:56.369Z,972.32
2017-09-29T12:18:05.063Z,972.35
2017-09-29T12:19:14.082Z,972.37
2017-09-29T12:20:23.742Z,972.37
2017-09-29T12:21:33.084Z,972.3
2017-09-29T12:22:42.105Z,972.32
2017-09-29T12:23:51.441Z,972.35
2017-09-29T12:25:00.142Z,972.38
2017-09-29T12:26:09.477Z,972.35
2017-09-29T12:27:18.810Z,972.35
2017-09-29T12:28:27.511Z,972.34
2017-09-29T12:29:36.528Z,972.32
2017-09-29T12:30:45.862Z,972.28
2017-09-29T12:31:54.565Z,972.3
2017-09-29T12:33:03.615Z,972.27
2017-09-29T12:34:12.674Z,972.29
2017-09-29T12:35:22.009Z,972.27
2017-09-29T12:36:31.997Z,972.25
2017-09-29T12:37:41.014Z,972.27
2017-09-29T12:38:49.715Z,972.24
2017-09-29T12:39:58.739Z,972.27
2017-09-29T12:41:07.763Z,972.23
2017-09-29T12:42:16.788Z,972.19
2017-09-29T12:43:25.808Z,972.21
2017-09-29T12:44:34.831Z,972.22
2017-09-29T12:45:44.194Z,972.25
2017-09-29T12:46:53.863Z,972.28
2017-09-29T12:48:03.199Z,972.29
2017-09-29T12:49:11.895Z,972.29
2017-09-29T12:50:20.913Z,972.3
2017-09-29T12:51:29.612Z,972.29
2017-09-29T12:52:39.364Z,972.3
2017-09-29T12:53:48.384Z,972.29
2017-09-29T12:54:57.081Z,972.31
2017-09-29T12:56:06.103Z,972.31
2017-09-29T12:57:15.123Z,972.28
2017-09-29T12:58:23.822Z,972.28
2017-09-29T12:59:32.519Z,972.31
2017-09-29T13:00:41.216Z,972.26
2017-09-29T13:01:50.230Z,972.27
2017-09-29T13:02:58.926Z,972.27
2017-09-29T13:04:07.621Z,972.29
2017-09-29T13:05:16.330Z,972.26
2017-09-29T13:06:25.675Z,972.29
2017-09-29T13:07:34.694Z,972.27
2017-09-29T13:08:43.712Z,972.27
2017-09-29T13:09:52.726Z,972.26
2017-09-29T13:11:01.744Z,972.26
2017-09-29T13:12:10.759Z,972.25
2017-09-29T13:13:20.095Z,972.26
2017-09-29T13:14:28.798Z,972.3
2017-09-29T13:15:38.132Z,972.23
2017-09-29T13:16:46.830Z,972.25
2017-09-29T13:17:56.164Z,972.25
2017-09-29T13:19:05.184Z,972.21
2017-09-29T13:20:14.205Z,972.21
2017-09-29T13:21:23.226Z,972.19
2017-09-29T13:22:31.927Z,972.19
2017-09-29T13:23:41.266Z,972.18
2017-09-29T13:24:49.963Z,972.17
2017-09-29T13:25:58.984Z,972.19
2017-09-29T13:27:08.321Z,972.19
2017-09-29T13:28:17.020Z,972.16
2017-09-29T13:29:26.360Z,972.12
2017-09-29T13:30:35.383Z,972.16
2017-09-29T13:31:44.400Z,972.13
2017-09-29T13:32:53.100Z,972.11
2017-09-29T13:34:02.436Z,972.09
2017-09-29T13:35:11.474Z,972.1
2017-09-29T13:36:20.805Z,972.08
2017-09-29T13:37:29.826Z,972.08
2017-09-29T13:38:38.528Z,972.07
2017-09-29T13:39:47.859Z,972.06
2017-09-29T13:40:56.879Z,972.05
2017-09-29T13:42:06.210Z,972.03
2017-09-29T13:43:15.550Z,972.03
2017-09-29T13:44:24.885Z,972
2017-09-29T13:45:33.585Z,972.01
2017-09-29T13:46:43.241Z,971.97
2017-09-29T13:47:52.259Z,972
2017-09-29T13:49:01.280Z,971.98
2017-09-29T13:50:10.295Z,971.96
2017-09-29T13:51:18.990Z,972
2017-09-29T13:52:28.001Z,971.99
2017-09-29T13:53:37.330Z,972
2017-09-29T13:54:46.345Z,972
2017-09-29T13:55:55.696Z,972
2017-09-29T13:57:04.391Z,972.01
2017-09-29T13:58:13.722Z,972
2017-09-29T13:59:23.064Z,972
2017-09-29T14:00:31.769Z,971.97
2017-09-29T14:01:41.107Z,971.99
2017-09-29T14:02:50.443Z,971.95
2017-09-29T14:03:59.137Z,971.93
2017-09-29T14:05:08.479Z,971.91
2017-09-29T14:06:17.825Z,971.91
2017-09-29T14:07:27.473Z,971.9
2017-09-29T14:08:36.179Z,971.92
2017-09-29T14:09:45.517Z,971.89
2017-09-29T14:10:54.217Z,971.9
2017-09-29T14:12:03.554Z,971.92
2017-09-29T14:13:13.210Z,971.93
2017-09-29T14:14:22.232Z,971.94
2017-09-29T14:15:31.568Z,971.91
2017-09-29T14:16:41.223Z,971.94
2017-09-29T14:17:49.919Z,971.92
2017-09-29T14:18:58.933Z,971.91
2017-09-29T14:20:07.950Z,971.9
2017-09-29T14:21:17.284Z,971.89
2017-09-29T14:22:26.300Z,971.9
2017-09-29T14:23:35.318Z,971.85
2017-09-29T14:24:44.015Z,971.87
2017-09-29T14:25:52.715Z,971.89
2017-09-29T14:27:01.411Z,971.86